Time;durP1;ratioP1;P1;durP2;ratioP2;P2;SDS_P1;SDS_P2;PMS_P1;PMS_P2;Temp;Humidity;BMP_temperature;BMP_pressure;BME280_temperature;BME280_humidity;BME280_pressure;Samples;Min_cycle;Max_cycle;Signal;HPM_P1;HPM_P2
2022/11/17 00:00:26;;;;;;;7.63;3.50;;;11.10;89.10;;;;;;5040909;28;20036;-70
2022/11/17 00:02:51;;;;;;;6.22;3.63;;;11.10;89.20;;;;;;5048528;28;20665;-71
2022/11/17 00:05:17;;;;;;;7.63;3.25;;;11.10;89.30;;;;;;5050138;28;20113;-70
2022/11/17 00:07:44;;;;;;;5.78;3.20;;;11.10;89.80;;;;;;5049400;28;20029;-69
2022/11/17 00:10:10;;;;;;;6.78;3.38;;;11.10;90.00;;;;;;5043173;28;20025;-69
2022/11/17 00:15:20;;;;;;;7.07;2.97;;;11.10;90.10;;;;;;5047269;28;20055;-68
2022/11/17 00:17:47;;;;;;;7.78;3.13;;;11.00;90.20;;;;;;5047323;28;20029;-71
2022/11/17 00:22:58;;;;;;;5.90;2.90;;;11.00;90.50;;;;;;5042172;28;20206;-69
2022/11/17 00:25:23;;;;;;;5.97;2.70;;;11.00;90.40;;;;;;5048254;28;20033;-69
2022/11/17 00:27:49;;;;;;;6.22;3.03;;;11.00;90.40;;;;;;5046917;28;20373;-69
2022/11/17 00:34:03;;;;;;;6.70;3.35;;;11.10;90.40;;;;;;5043180;28;20029;-70
2022/11/17 00:35:53;;;;;;;7.50;3.28;;;11.00;90.60;;;;;;5044547;28;20040;-70
2022/11/17 00:38:19;;;;;;;8.00;3.05;;;10.90;90.80;;;;;;5030323;28;20086;-71
2022/11/17 00:40:44;;;;;;;7.45;3.28;;;11.00;90.90;;;;;;5040706;28;20025;-71
2022/11/17 00:43:10;;;;;;;4.60;2.80;;;10.90;91.00;;;;;;5046805;28;20037;-71
2022/11/17 00:45:35;;;;;;;5.97;2.88;;;10.90;91.00;;;;;;5029913;28;20064;-71
2022/11/17 00:48:01;;;;;;;8.40;2.83;;;10.90;91.10;;;;;;5035258;28;20033;-72
2022/11/17 00:50:26;;;;;;;6.55;2.75;;;11.00;91.10;;;;;;5038700;28;20022;-71
2022/11/17 00:52:52;;;;;;;6.25;2.78;;;11.00;91.20;;;;;;5028487;28;20052;-72
2022/11/17 00:55:18;;;;;;;6.90;2.67;;;10.90;91.20;;;;;;5034744;28;20032;-72
2022/11/17 00:57:43;;;;;;;8.90;3.45;;;10.90;91.30;;;;;;5039028;28;20536;-72
2022/11/17 01:00:09;;;;;;;6.13;3.22;;;10.90;91.40;;;;;;5040117;28;20051;-71
2022/11/17 01:02:36;;;;;;;6.80;2.60;;;10.90;91.60;;;;;;5030713;28;20032;-70
2022/11/17 01:05:01;;;;;;;9.43;5.18;;;10.90;91.60;;;;;;5043147;28;20112;-72
2022/11/17 01:07:27;;;;;;;6.82;3.30;;;10.90;91.60;;;;;;5047318;28;20570;-70
2022/11/17 01:09:52;;;;;;;5.80;2.80;;;10.90;92.00;;;;;;5037430;28;20032;-71
2022/11/17 01:12:18;;;;;;;7.80;3.20;;;10.90;91.80;;;;;;5048637;28;20035;-70
2022/11/17 01:14:43;;;;;;;8.00;3.20;;;10.90;92.00;;;;;;5031510;28;20021;-70
2022/11/17 01:17:09;;;;;;;6.75;3.38;;;10.90;92.00;;;;;;5035846;28;20017;-71
2022/11/17 01:19:34;;;;;;;7.53;3.20;;;10.80;92.00;;;;;;5045562;28;20029;-71
2022/11/17 01:22:00;;;;;;;5.53;2.80;;;10.80;92.10;;;;;;5043365;28;20024;-72
2022/11/17 01:24:25;;;;;;;6.45;2.70;;;10.80;92.20;;;;;;5048524;28;20075;-70
2022/11/17 01:26:51;;;;;;;7.78;3.22;;;10.80;92.30;;;;;;5036202;28;20045;-70
2022/11/17 01:29:17;;;;;;;4.80;2.67;;;10.90;92.30;;;;;;5040849;28;20036;-69
2022/11/17 01:31:44;;;;;;;4.25;2.70;;;10.80;92.30;;;;;;5038070;28;20025;-72
2022/11/17 01:34:11;;;;;;;6.38;2.75;;;10.90;92.30;;;;;;5046547;28;20037;-72
2022/11/17 01:39:25;;;;;;;6.97;2.83;;;10.90;92.30;;;;;;5044302;28;20040;-70
2022/11/17 01:41:51;;;;;;;7.18;2.65;;;10.90;92.40;;;;;;5039716;28;20454;-69
2022/11/17 01:44:43;;;;;;;4.28;2.35;;;10.90;92.40;;;;;;5030785;28;20033;-69
2022/11/17 01:47:33;;;;;;;4.15;2.25;;;11.00;92.40;;;;;;5039768;28;20056;-70
2022/11/17 01:50:18;;;;;;;5.63;2.50;;;11.00;92.30;;;;;;5034207;28;20025;-69
2022/11/17 01:52:45;;;;;;;3.78;2.20;;;11.00;92.20;;;;;;5037699;28;20110;-70
2022/11/17 01:55:11;;;;;;;4.18;2.47;;;11.00;92.20;;;;;;5043685;28;20031;-70
2022/11/17 01:58:00;;;;;;;5.45;2.47;;;11.00;92.20;;;;;;5031968;28;20083;-68
2022/11/17 02:00:27;;;;;;;5.30;2.55;;;11.00;92.20;;;;;;5034048;28;20502;-69
2022/11/17 02:02:53;;;;;;;4.47;2.75;;;11.10;92.20;;;;;;5033605;28;20045;-68
2022/11/17 02:05:38;;;;;;;4.78;2.20;;;11.10;92.10;;;;;;5037137;28;20025;-70
2022/11/17 02:08:05;;;;;;;6.57;2.63;;;11.20;92.00;;;;;;5039006;28;20025;-68
2022/11/17 02:10:33;;;;;;;4.57;2.20;;;11.20;91.90;;;;;;5043467;28;20039;-69
2022/11/17 02:13:00;;;;;;;5.65;2.50;;;11.20;92.00;;;;;;5048541;28;20127;-69
2022/11/17 02:15:28;;;;;;;2.90;2.00;;;11.10;92.00;;;;;;5048156;28;20422;-68
2022/11/17 02:17:54;;;;;;;4.65;2.40;;;11.10;92.10;;;;;;5049844;28;20025;-70
2022/11/17 02:20:41;;;;;;;4.28;2.35;;;11.10;92.20;;;;;;5041877;28;20025;-70
2022/11/17 02:23:40;;;;;;;5.00;2.20;;;11.10;92.20;;;;;;5042217;28;20029;-69
2022/11/17 02:26:28;;;;;;;2.95;1.90;;;11.10;92.30;;;;;;5033460;28;20144;-69
2022/11/17 02:29:18;;;;;;;5.88;2.22;;;11.10;92.30;;;;;;5039056;28;20029;-69
2022/11/17 02:32:20;;;;;;;5.40;2.20;;;11.20;92.40;;;;;;5040428;28;20425;-71
2022/11/17 02:34:53;;;;;;;;;;;11.20;92.40;;;;;;5045481;28;20029;-71
2022/11/17 02:37:51;;;;;;;3.40;1.80;;;11.20;92.60;;;;;;5042965;28;19909;-69
2022/11/17 02:40:33;;;;;;;4.85;2.20;;;11.20;92.40;;;;;;5012517;28;20046;-71
2022/11/17 02:45:52;;;;;;;5.55;2.20;;;11.20;92.30;;;;;;5038514;28;20510;-69
2022/11/17 02:48:33;;;;;;;2.80;1.70;;;11.20;92.20;;;;;;5036474;28;20049;-70
2022/11/17 02:51:00;;;;;;;3.75;1.90;;;11.30;92.20;;;;;;5040711;28;20044;-69
2022/11/17 02:53:27;;;;;;;3.00;1.80;;;11.30;92.20;;;;;;5037157;28;20017;-69
2022/11/17 02:55:53;;;;;;;4.18;1.90;;;11.30;92.10;;;;;;5034279;28;20052;-70
2022/11/17 02:58:20;;;;;;;3.63;1.70;;;11.30;92.10;;;;;;5038749;28;20035;-71
2022/11/17 03:01:08;;;;;;;3.70;1.63;;;11.30;92.00;;;;;;5045795;28;20032;-70
2022/11/17 03:03:58;;;;;;;3.83;1.80;;;11.40;92.00;;;;;;5048719;28;20025;-70
2022/11/17 03:06:50;;;;;;;2.38;1.60;;;11.40;91.90;;;;;;5035741;28;20571;-69
2022/11/17 03:09:56;;;;;;;3.15;1.75;;;11.40;91.80;;;;;;5034828;28;20056;-69
2022/11/17 03:12:41;;;;;;;4.30;1.60;;;11.40;91.70;;;;;;5039823;28;20037;-69
2022/11/17 03:15:22;;;;;;;4.22;1.88;;;11.40;91.70;;;;;;5041408;28;20021;-69
2022/11/17 03:18:08;;;;;;;2.75;1.52;;;11.40;91.70;;;;;;5034497;28;20049;-69
2022/11/17 03:20:51;;;;;;;3.47;1.70;;;11.40;91.70;;;;;;5036996;28;20017;-70
2022/11/17 03:23:22;;;;;;;3.28;1.77;;;11.50;91.70;;;;;;5048508;28;20025;-70
2022/11/17 03:25:54;;;;;;;3.38;2.00;;;11.50;91.60;;;;;;5034155;28;20072;-69
2022/11/17 03:28:25;;;;;;;3.47;1.90;;;11.50;91.50;;;;;;5053338;28;20040;-69
2022/11/17 03:30:52;;;;;;;4.88;2.10;;;11.50;91.50;;;;;;5035694;28;20123;-70
2022/11/17 03:33:21;;;;;;;4.45;2.00;;;11.50;91.40;;;;;;5043947;28;20017;-70
2022/11/17 03:36:01;;;;;;;3.05;1.80;;;11.50;91.30;;;;;;5050560;28;20132;-69
2022/11/17 03:38:31;;;;;;;2.30;1.50;;;11.50;91.10;;;;;;5042395;28;20388;-70
2022/11/17 03:41:01;;;;;;;3.60;1.80;;;11.60;91.00;;;;;;5038318;28;20025;-69
2022/11/17 03:43:29;;;;;;;3.00;1.75;;;11.70;91.00;;;;;;5039038;28;20112;-69
2022/11/17 03:46:01;;;;;;;3.13;1.88;;;11.70;90.80;;;;;;5046086;28;20025;-67
2022/11/17 03:48:32;;;;;;;5.32;1.90;;;11.70;90.60;;;;;;5036944;28;20037;-67
2022/11/17 03:51:08;;;;;;;3.55;1.92;;;11.70;90.50;;;;;;5048342;28;20032;-68
2022/11/17 03:53:34;;;;;;;3.55;1.70;;;11.70;90.50;;;;;;5040891;28;20039;-68
2022/11/17 03:56:18;;;;;;;3.15;2.13;;;11.60;90.40;;;;;;5040932;28;20109;-69
2022/11/17 03:58:58;;;;;;;3.83;2.35;;;11.60;90.40;;;;;;5030446;28;20403;-69
2022/11/17 04:01:26;;;;;;;2.65;1.63;;;11.60;90.40;;;;;;5031234;28;20613;-70
2022/11/17 04:03:52;;;;;;;4.40;2.05;;;11.60;90.50;;;;;;5038065;28;20491;-71
2022/11/17 04:06:17;;;;;;;3.50;2.00;;;11.60;90.50;;;;;;5041599;28;20029;-71
2022/11/17 04:08:43;;;;;;;2.95;1.60;;;11.60;90.50;;;;;;5036334;28;20434;-67
2022/11/17 04:16:37;;;;;;;5.28;2.25;;;11.60;90.60;;;;;;5039332;28;20097;-67
2022/11/17 04:19:02;;;;;;;3.85;1.80;;;11.60;90.60;;;;;;5035533;28;20029;-71
2022/11/17 04:21:28;;;;;;;3.83;1.42;;;11.60;90.70;;;;;;5043620;28;20391;-71
2022/11/17 04:23:54;;;;;;;3.28;1.63;;;11.60;90.70;;;;;;5045146;28;20407;-68
2022/11/17 04:29:04;;;;;;;3.80;1.85;;;11.60;90.80;;;;;;5033065;28;20076;-68
2022/11/17 04:31:31;;;;;;;4.13;1.85;;;11.60;90.70;;;;;;5032726;28;20057;-67
2022/11/17 04:34:02;;;;;;;2.75;1.80;;;11.60;90.80;;;;;;5037229;28;20044;-68
2022/11/17 04:36:38;;;;;;;4.32;1.70;;;11.50;91.10;;;;;;5031968;28;20121;-68
2022/11/17 04:39:04;;;;;;;3.85;1.98;;;11.60;90.90;;;;;;5040056;28;20056;-68
2022/11/17 04:44:34;;;;;;;3.28;1.90;;;11.50;91.00;;;;;;5025492;28;20033;-70
2022/11/17 04:47:02;;;;;;;2.60;1.70;;;11.50;91.00;;;;;;5023558;28;20029;-69
2022/11/17 04:49:29;;;;;;;2.40;1.60;;;11.50;91.10;;;;;;5028669;28;20431;-69
2022/11/17 04:51:55;;;;;;;2.03;1.75;;;11.50;91.10;;;;;;5045964;28;20044;-68
2022/11/17 04:54:23;;;;;;;3.42;1.73;;;11.50;91.10;;;;;;5036113;28;20075;-67
2022/11/17 04:56:49;;;;;;;5.15;2.65;;;11.50;91.10;;;;;;5044829;28;20025;-69
2022/11/17 04:59:15;;;;;;;2.88;1.77;;;11.50;91.20;;;;;;5047860;28;20025;-68
2022/11/17 05:01:41;;;;;;;2.67;2.00;;;11.50;91.30;;;;;;5037460;28;20405;-69
2022/11/17 05:04:09;;;;;;;3.75;2.35;;;11.50;91.30;;;;;;5039518;28;20025;-70
2022/11/17 05:06:43;;;;;;;5.35;2.40;;;11.50;91.30;;;;;;5033141;28;20026;-68
2022/11/17 05:09:11;;;;;;;2.65;2.03;;;11.50;91.30;;;;;;5045993;28;20033;-70
2022/11/17 05:14:23;;;;;;;3.33;2.00;;;11.50;91.10;;;;;;5037761;28;20098;-69
2022/11/17 05:17:04;;;;;;;3.53;2.10;;;11.50;91.10;;;;;;5039832;28;20443;-69
2022/11/17 05:19:33;;;;;;;3.55;2.08;;;11.50;91.00;;;;;;5036339;28;20021;-69
2022/11/17 05:21:59;;;;;;;3.65;1.90;;;11.50;91.10;;;;;;5035739;28;20032;-69
2022/11/17 05:24:25;;;;;;;4.65;2.10;;;11.50;91.10;;;;;;5033392;28;20022;-69
2022/11/17 05:26:51;;;;;;;3.58;1.90;;;11.50;91.10;;;;;;5026653;28;20101;-70
2022/11/17 05:29:19;;;;;;;3.03;1.90;;;11.50;91.10;;;;;;5029575;28;20436;-69
2022/11/17 05:31:45;;;;;;;2.95;1.90;;;11.50;91.10;;;;;;5033512;28;20028;-70
2022/11/17 05:34:13;;;;;;;2.60;1.60;;;11.50;91.20;;;;;;5029588;28;20030;-70
2022/11/17 05:36:39;;;;;;;4.90;1.80;;;11.50;91.20;;;;;;5030699;28;20017;-70
2022/11/17 05:39:05;;;;;;;2.78;1.88;;;11.50;91.20;;;;;;5037203;28;20036;-71
2022/11/17 05:41:31;;;;;;;5.10;2.00;;;11.40;91.30;;;;;;5034483;28;20017;-71
2022/11/17 05:43:57;;;;;;;2.88;1.92;;;11.40;91.40;;;;;;5029713;28;21706;-71
2022/11/17 05:46:24;;;;;;;2.90;1.70;;;11.40;91.50;;;;;;5031558;28;20036;-73
2022/11/17 05:48:50;;;;;;;3.78;1.95;;;11.40;91.60;;;;;;5042146;28;20021;-71
2022/11/17 05:51:21;;;;;;;5.38;2.00;;;11.40;91.50;;;;;;5044807;28;20031;-71
2022/11/17 05:53:48;;;;;;;3.80;2.10;;;11.40;91.50;;;;;;5035285;28;20032;-72
2022/11/17 05:56:49;;;;;;;4.95;2.10;;;11.40;91.50;;;;;;5046351;28;20476;-73
2022/11/17 05:59:30;;;;;;;3.20;1.80;;;11.50;91.60;;;;;;5028295;28;20045;-73
2022/11/17 06:02:01;;;;;;;2.55;1.88;;;11.40;91.50;;;;;;5033621;28;20021;-72
2022/11/17 06:04:28;;;;;;;3.10;1.80;;;11.30;91.60;;;;;;5044972;28;20561;-72
2022/11/17 06:06:57;;;;;;;3.92;1.80;;;11.30;91.70;;;;;;5038783;28;20025;-72
2022/11/17 06:09:27;;;;;;;3.40;1.90;;;11.20;91.90;;;;;;5038970;28;20507;-73
2022/11/17 06:11:53;;;;;;;4.05;1.95;;;11.30;92.10;;;;;;5043145;28;20394;-73
2022/11/17 06:14:19;;;;;;;3.72;2.00;;;11.30;92.10;;;;;;5039743;28;20017;-74
2022/11/17 06:16:45;;;;;;;4.78;2.15;;;11.30;92.10;;;;;;5043687;28;20152;-73
2022/11/17 06:19:20;;;;;;;3.33;2.10;;;11.30;92.10;;;;;;5041821;28;20037;-74
2022/11/17 06:21:45;;;;;;;3.90;2.05;;;11.30;92.20;;;;;;5042479;28;20021;-72
2022/11/17 06:24:11;;;;;;;2.80;1.90;;;11.30;92.20;;;;;;5040351;28;20431;-72
2022/11/17 06:26:39;;;;;;;3.55;1.90;;;11.30;92.20;;;;;;5044275;28;20032;-71
2022/11/17 06:29:07;;;;;;;3.00;1.90;;;11.30;92.20;;;;;;5049365;28;20567;-72
2022/11/17 06:31:32;;;;;;;3.05;1.65;;;11.30;92.20;;;;;;5052460;28;20028;-71
2022/11/17 06:34:01;;;;;;;6.50;2.20;;;11.40;92.10;;;;;;5052806;28;20021;-72
2022/11/17 06:36:27;;;;;;;3.95;2.00;;;11.40;92.10;;;;;;5052312;28;20104;-72
2022/11/17 06:38:53;;;;;;;5.40;2.47;;;11.40;92.00;;;;;;5052681;28;20025;-72
2022/11/17 06:41:19;;;;;;;3.38;2.38;;;11.40;92.10;;;;;;5043769;28;20099;-72
2022/11/17 06:43:45;;;;;;;3.83;2.30;;;11.30;92.30;;;;;;5051298;28;20032;-72
2022/11/17 06:46:10;;;;;;;6.50;2.72;;;11.40;92.40;;;;;;5051091;28;20029;-73
2022/11/17 06:48:36;;;;;;;3.80;1.92;;;11.30;92.40;;;;;;5050892;28;20017;-73
2022/11/17 06:51:04;;;;;;;3.38;2.00;;;11.40;92.50;;;;;;5052466;28;20021;-72
2022/11/17 06:53:30;;;;;;;5.05;1.95;;;11.40;92.40;;;;;;5052307;28;20063;-72
2022/11/17 06:56:00;;;;;;;3.35;1.60;;;11.50;92.40;;;;;;5052441;28;20017;-71
2022/11/17 06:58:26;;;;;;;3.88;1.90;;;11.50;92.40;;;;;;5052446;28;20048;-71
2022/11/17 07:00:52;;;;;;;4.72;1.70;;;11.50;92.30;;;;;;5052587;28;20029;-71
2022/11/17 07:03:18;;;;;;;4.55;1.77;;;11.50;92.30;;;;;;5052303;28;20033;-70
2022/11/17 07:05:43;;;;;;;5.45;1.60;;;11.50;92.30;;;;;;5049417;28;20025;-71
2022/11/17 07:08:09;;;;;;;4.57;1.70;;;11.60;92.30;;;;;;5047978;28;20027;-72
2022/11/17 07:10:35;;;;;;;5.38;1.63;;;11.60;92.30;;;;;;5048253;28;20036;-72
2022/11/17 07:13:02;;;;;;;5.97;2.08;;;11.60;92.60;;;;;;5050277;28;20033;-72
2022/11/17 07:15:27;;;;;;;4.25;1.50;;;11.60;92.20;;;;;;5051444;28;20017;-72
2022/11/17 07:17:53;;;;;;;4.88;1.80;;;11.60;92.20;;;;;;5052241;28;20537;-72
2022/11/17 07:20:19;;;;;;;4.88;1.65;;;11.70;92.20;;;;;;5048682;28;20051;-71
2022/11/17 07:22:44;;;;;;;5.10;1.73;;;11.70;92.20;;;;;;5051767;28;20088;-73
2022/11/17 07:25:11;;;;;;;5.55;1.77;;;11.70;92.10;;;;;;5050621;28;20064;-71
2022/11/17 07:27:37;;;;;;;6.75;1.83;;;11.70;92.10;;;;;;5051678;28;20105;-71
2022/11/17 07:30:06;;;;;;;4.65;1.25;;;11.70;91.90;;;;;;5047307;28;20100;-71
2022/11/17 07:32:33;;;;;;;5.22;1.35;;;11.70;91.70;;;;;;5046254;28;20044;-71
2022/11/17 07:35:00;;;;;;;3.90;1.65;;;11.70;91.60;;;;;;5048756;28;20162;-71
2022/11/17 07:37:27;;;;;;;7.55;1.50;;;11.70;91.40;;;;;;5046629;28;20445;-72
2022/11/17 07:39:53;;;;;;;4.03;1.10;;;11.80;91.40;;;;;;5031557;28;20104;-72
2022/11/17 07:42:18;;;;;;;5.53;1.38;;;11.80;91.30;;;;;;5033363;28;20104;-71
2022/11/17 07:44:44;;;;;;;3.90;1.20;;;11.80;91.20;;;;;;5049217;28;20021;-71
2022/11/17 07:47:09;;;;;;;4.53;1.60;;;11.80;91.10;;;;;;5043800;28;20037;-71
2022/11/17 07:49:35;;;;;;;5.47;1.60;;;11.90;91.20;;;;;;5043804;28;20068;-72
2022/11/17 07:52:00;;;;;;;5.90;1.63;;;11.80;91.10;;;;;;5049800;28;20028;-71
2022/11/17 07:54:26;;;;;;;3.42;1.40;;;11.80;91.20;;;;;;5041366;28;20021;-73
2022/11/17 07:56:52;;;;;;;3.45;1.40;;;11.80;91.30;;;;;;5042384;28;20052;-71
2022/11/17 07:59:17;;;;;;;3.60;1.40;;;11.80;91.30;;;;;;5050876;28;20029;-72
2022/11/17 08:01:43;;;;;;;5.55;1.38;;;11.80;91.30;;;;;;5042055;28;20033;-71
2022/11/17 08:04:09;;;;;;;4.50;1.30;;;11.80;91.30;;;;;;5043357;28;20032;-71
2022/11/17 08:06:36;;;;;;;4.47;1.85;;;11.80;91.30;;;;;;5044692;28;20032;-70
2022/11/17 08:09:01;;;;;;;11.52;7.53;;;11.80;91.20;;;;;;5040683;28;20021;-71
2022/11/17 08:11:27;;;;;;;14.65;9.75;;;11.80;91.10;;;;;;5041635;28;20383;-70
2022/11/17 08:13:53;;;;;;;9.43;4.85;;;11.90;91.10;;;;;;5043803;28;20492;-72
2022/11/17 08:16:18;;;;;;;20.15;18.02;;;11.90;91.00;;;;;;5040383;28;20545;-70
2022/11/17 08:18:44;;;;;;;10.63;7.32;;;11.90;91.00;;;;;;5038521;28;20506;-72
2022/11/17 08:21:13;;;;;;;13.80;12.18;;;11.80;90.80;;;;;;5045394;28;20558;-71
2022/11/17 08:23:40;;;;;;;9.88;3.72;;;11.80;90.70;;;;;;5045827;28;20507;-71
2022/11/17 08:26:08;;;;;;;6.20;3.97;;;11.80;90.60;;;;;;5046617;28;20029;-70
2022/11/17 08:28:34;;;;;;;8.18;5.32;;;11.80;90.50;;;;;;5048175;28;20398;-71
2022/11/17 08:31:01;;;;;;;5.05;2.95;;;11.80;90.40;;;;;;5045464;28;20021;-70
2022/11/17 08:33:27;;;;;;;5.28;1.85;;;11.70;90.40;;;;;;5047011;28;20048;-70
2022/11/17 08:35:57;;;;;;;1.85;1.17;;;11.70;90.30;;;;;;5049317;28;20493;-71
2022/11/17 08:38:27;;;;;;;2.63;1.05;;;11.80;90.30;;;;;;5046033;28;20024;-70
2022/11/17 08:40:56;;;;;;;4.18;1.30;;;11.70;90.20;;;;;;5043713;28;20033;-71
2022/11/17 08:43:22;;;;;;;2.92;1.20;;;11.70;90.20;;;;;;5049528;28;20021;-71
2022/11/17 08:45:47;;;;;;;3.42;1.35;;;11.70;90.20;;;;;;5046971;28;20025;-71
2022/11/17 08:48:13;;;;;;;3.83;1.38;;;11.70;90.20;;;;;;5045159;28;20483;-71
2022/11/17 08:50:38;;;;;;;3.25;1.30;;;11.70;90.20;;;;;;5043877;28;20709;-70
2022/11/17 08:53:04;;;;;;;4.53;1.10;;;11.70;90.30;;;;;;5048287;28;20104;-72
2022/11/17 08:55:30;;;;;;;3.08;1.60;;;11.70;90.30;;;;;;5042338;28;20100;-71
2022/11/17 08:57:55;;;;;;;3.53;1.45;;;11.60;90.30;;;;;;5046811;28;20051;-71
2022/11/17 09:00:21;;;;;;;3.58;1.48;;;11.60;90.30;;;;;;5039910;28;20033;-72
2022/11/17 09:02:46;;;;;;;5.47;1.80;;;11.60;90.30;;;;;;5045529;28;20059;-71
2022/11/17 09:05:12;;;;;;;6.13;2.17;;;11.60;90.30;;;;;;5047164;28;20029;-73
2022/11/17 09:07:39;;;;;;;4.93;1.40;;;11.60;90.30;;;;;;5047547;28;20017;-71
2022/11/17 09:10:09;;;;;;;6.40;1.67;;;11.60;90.30;;;;;;5045620;28;20032;-73
2022/11/17 09:12:35;;;;;;;4.15;1.40;;;11.60;90.30;;;;;;5047708;28;20357;-71
2022/11/17 09:15:00;;;;;;;5.25;2.30;;;11.60;90.30;;;;;;5048728;28;20051;-73
2022/11/17 09:17:26;;;;;;;2.40;1.20;;;11.60;90.30;;;;;;5047215;28;20514;-70
2022/11/17 09:19:51;;;;;;;3.20;1.20;;;11.60;90.20;;;;;;5045150;28;20029;-71
2022/11/17 09:22:18;;;;;;;4.55;1.35;;;11.50;90.20;;;;;;5045936;28;20059;-72
2022/11/17 09:24:44;;;;;;;4.03;1.10;;;11.50;90.10;;;;;;5049754;28;20032;-71
2022/11/17 09:27:09;;;;;;;4.18;1.30;;;11.60;90.10;;;;;;5048328;28;20029;-71
2022/11/17 09:29:35;;;;;;;5.50;1.75;;;11.60;90.00;;;;;;5046190;28;20032;-70
2022/11/17 09:32:01;;;;;;;24.40;21.95;;;11.60;90.00;;;;;;5046968;28;20063;-70
2022/11/17 09:34:28;;;;;;;5.03;2.60;;;11.60;90.20;;;;;;5037630;28;20204;-71
2022/11/17 09:36:53;;;;;;;1.35;1.00;;;11.60;89.90;;;;;;5041271;28;20025;-72
2022/11/17 09:39:20;;;;;;;3.53;1.05;;;11.60;89.80;;;;;;5041863;28;20420;-70
2022/11/17 09:41:54;;;;;;;3.53;1.20;;;11.60;89.80;;;;;;5042423;28;20387;-72
2022/11/17 09:44:46;;;;;;;4.15;1.15;;;11.60;89.80;;;;;;5047765;28;20029;-69
2022/11/17 09:47:12;;;;;;;;;;;11.60;89.60;;;;;;5048688;28;20047;-72
2022/11/17 09:49:40;;;;;;;1.95;0.90;;;11.60;89.40;;;;;;5044776;28;19912;-71
2022/11/17 09:52:13;;;;;;;3.90;1.30;;;11.60;89.40;;;;;;5042111;28;20018;-72
2022/11/17 09:54:50;;;;;;;3.33;1.15;;;11.60;89.40;;;;;;5038974;28;20095;-71
2022/11/17 09:57:42;;;;;;;1.70;1.00;;;11.60;89.50;;;;;;5048968;28;20024;-72
2022/11/17 10:00:21;;;;;;;1.80;1.05;;;11.60;89.40;;;;;;5042525;28;20060;-71
2022/11/17 10:02:49;;;;;;;2.78;1.05;;;11.60;89.20;;;;;;5047323;28;20434;-72
2022/11/17 10:05:26;;;;;;;5.93;3.83;;;11.50;89.00;;;;;;5040089;28;20033;-75
2022/11/17 10:07:55;;;;;;;25.80;14.07;;;11.60;89.20;;;;;;5038376;28;20037;-72
2022/11/17 10:10:33;;;;;;;19.40;11.35;;;11.60;89.10;;;;;;5040733;28;20033;-73
2022/11/17 10:13:03;;;;;;;6.75;5.03;;;11.60;89.10;;;;;;5035176;28;20095;-72
2022/11/17 10:15:39;;;;;;;5.60;2.90;;;11.50;89.10;;;;;;5041013;28;20424;-72
2022/11/17 10:18:12;;;;;;;4.07;2.10;;;11.50;88.90;;;;;;5049509;28;20641;-72
2022/11/17 10:20:38;;;;;;;5.78;5.05;;;11.50;88.90;;;;;;5045466;28;20021;-72
2022/11/17 10:23:03;;;;;;;4.93;2.92;;;11.50;89.10;;;;;;5042745;28;20029;-73
2022/11/17 10:25:45;;;;;;;4.53;2.20;;;11.50;89.10;;;;;;5046212;28;20464;-72
2022/11/17 10:28:26;;;;;;;3.60;1.40;;;11.50;89.10;;;;;;5042611;28;20033;-72
2022/11/17 10:30:59;;;;;;;3.47;1.60;;;11.50;89.00;;;;;;5042308;28;20108;-71
2022/11/17 10:33:33;;;;;;;5.00;3.15;;;11.50;89.10;;;;;;5045520;28;20098;-72
2022/11/17 10:35:59;;;;;;;2.95;1.38;;;11.40;88.90;;;;;;5040426;28;20024;-71
2022/11/17 10:38:28;;;;;;;2.95;1.20;;;11.50;89.10;;;;;;5047641;28;20025;-71
2022/11/17 10:40:57;;;;;;;3.25;1.35;;;11.40;89.10;;;;;;5048070;28;20029;-70
2022/11/17 10:43:30;;;;;;;2.80;1.25;;;11.50;89.10;;;;;;5038671;28;20032;-71
2022/11/17 10:46:06;;;;;;;3.33;1.13;;;11.50;89.10;;;;;;5042016;28;20025;-71
2022/11/17 10:48:52;;;;;;;4.18;1.00;;;11.50;88.90;;;;;;5044721;28;20037;-71
2022/11/17 10:51:18;;;;;;;3.13;1.00;;;11.50;88.90;;;;;;5046820;28;20025;-71
2022/11/17 10:54:04;;;;;;;3.15;1.20;;;11.50;88.80;;;;;;5041009;28;20071;-71
2022/11/17 10:56:33;;;;;;;2.90;1.20;;;11.60;88.80;;;;;;5046422;28;20026;-71
2022/11/17 10:59:11;;;;;;;3.13;1.23;;;11.60;88.70;;;;;;5051721;28;20101;-72
2022/11/17 11:01:42;;;;;;;2.67;1.10;;;11.70;88.60;;;;;;5046766;28;20034;-71
2022/11/17 11:04:26;;;;;;;4.53;2.80;;;11.70;88.40;;;;;;5046431;28;20060;-71
2022/11/17 11:07:06;;;;;;;19.25;12.07;;;11.70;88.30;;;;;;5042588;28;20040;-71
2022/11/17 11:09:34;;;;;;;15.07;8.27;;;11.70;88.10;;;;;;5042566;28;20116;-71
2022/11/17 11:12:03;;;;;;;54.90;29.50;;;11.70;87.90;;;;;;5040900;28;20580;-71
2022/11/17 11:14:31;;;;;;;32.35;16.85;;;11.70;87.90;;;;;;5042008;28;20450;-71
2022/11/17 11:16:57;;;;;;;8.93;4.78;;;11.80;87.80;;;;;;5050205;28;20375;-72
2022/11/17 11:19:24;;;;;;;4.38;2.45;;;11.80;87.50;;;;;;5048054;28;20025;-71
2022/11/17 11:22:27;;;;;;;5.40;3.15;;;11.80;87.50;;;;;;5051387;28;20060;-71
2022/11/17 11:25:08;;;;;;;5.70;2.80;;;11.80;87.30;;;;;;5050111;28;20640;-71
2022/11/17 11:28:04;;;;;;;3.75;1.95;;;11.90;87.20;;;;;;5047668;28;20383;-71
2022/11/17 11:30:37;;;;;;;3.13;1.63;;;11.80;86.90;;;;;;5046564;28;20479;-71
2022/11/17 11:33:32;;;;;;;3.40;1.17;;;11.90;87.00;;;;;;5048838;28;20428;-71
2022/11/17 11:36:20;;;;;;;3.88;1.15;;;11.90;86.60;;;;;;5045148;28;20020;-71
2022/11/17 11:39:14;;;;;;;2.78;1.20;;;11.90;86.60;;;;;;5044416;28;20503;-71
2022/11/17 11:41:52;;;;;;;3.35;0.98;;;11.90;86.30;;;;;;5049899;28;20040;-71
2022/11/17 11:44:36;;;;;;;5.25;2.55;;;12.00;86.30;;;;;;5040401;28;20040;-71
2022/11/17 11:47:19;;;;;;;3.00;1.40;;;12.00;86.20;;;;;;5048698;28;20044;-71
2022/11/17 11:49:51;;;;;;;3.15;1.10;;;12.00;85.30;;;;;;5044079;28;20029;-71
2022/11/17 11:52:36;;;;;;;2.75;1.13;;;12.00;85.20;;;;;;5049861;28;20403;-72
2022/11/17 11:55:26;;;;;;;1.67;0.90;;;12.00;85.70;;;;;;5050641;28;20021;-71
2022/11/17 11:58:09;;;;;;;3.70;1.00;;;12.00;85.10;;;;;;5044709;28;20100;-71
2022/11/17 12:00:36;;;;;;;3.83;1.30;;;12.00;85.10;;;;;;5047552;28;20025;-71
2022/11/17 12:03:24;;;;;;;4.03;0.90;;;12.00;85.00;;;;;;5043891;28;20495;-71
2022/11/17 12:09:01;;;;;;;3.65;1.25;;;12.00;85.00;;;;;;5040525;28;20064;-71
2022/11/17 12:14:17;;;;;;;3.00;1.33;;;12.00;84.80;;;;;;5047647;28;20036;-71
2022/11/17 12:16:43;;;;;;;2.10;1.20;;;12.00;84.80;;;;;;5046468;28;20024;-71
2022/11/17 12:19:43;;;;;;;3.42;1.10;;;12.00;84.80;;;;;;5040586;28;20060;-71
2022/11/17 12:22:29;;;;;;;4.88;1.30;;;12.00;84.70;;;;;;5042828;28;20487;-72
2022/11/17 12:24:56;;;;;;;2.60;1.20;;;12.00;84.50;;;;;;5042403;28;20030;-71
2022/11/17 12:27:48;;;;;;;4.50;1.45;;;12.00;84.50;;;;;;5048938;28;20103;-71
2022/11/17 12:30:32;;;;;;;2.72;1.23;;;12.00;84.70;;;;;;5042344;28;20036;-71
2022/11/17 12:33:00;;;;;;;1.80;1.02;;;12.00;84.70;;;;;;5048981;28;20744;-71
2022/11/17 12:35:27;;;;;;;3.65;1.10;;;12.00;84.80;;;;;;5048065;28;20536;-71
2022/11/17 12:38:11;;;;;;;4.78;1.40;;;12.00;84.80;;;;;;5047411;28;20632;-71
2022/11/17 12:40:37;;;;;;;2.45;1.13;;;12.10;84.80;;;;;;5042136;28;20036;-71
2022/11/17 12:43:14;;;;;;;4.25;1.42;;;12.10;84.80;;;;;;5049082;28;20028;-71
2022/11/17 12:45:52;;;;;;;5.43;1.40;;;12.10;84.50;;;;;;5044481;28;20028;-71
2022/11/17 12:48:38;;;;;;;3.85;1.45;;;12.10;84.60;;;;;;5042420;28;20037;-71
2022/11/17 12:51:09;;;;;;;3.65;1.38;;;12.10;84.50;;;;;;5038092;28;20082;-71
2022/11/17 12:53:52;;;;;;;4.85;1.38;;;12.10;84.40;;;;;;5043325;28;20029;-71
2022/11/17 12:56:34;;;;;;;2.20;1.10;;;12.10;84.30;;;;;;5036990;28;20036;-71
2022/11/17 12:59:18;;;;;;;3.38;1.30;;;12.10;83.90;;;;;;5045225;28;20112;-70
2022/11/17 13:02:13;;;;;;;3.63;1.27;;;12.10;84.00;;;;;;5029861;28;20162;-71
2022/11/17 13:04:54;;;;;;;2.50;1.17;;;12.10;84.20;;;;;;5030068;28;20053;-72
2022/11/17 13:07:24;;;;;;;2.35;1.17;;;12.10;84.20;;;;;;5028643;28;20029;-71
2022/11/17 13:09:52;;;;;;;4.20;1.40;;;12.10;84.20;;;;;;5029824;28;20021;-71
2022/11/17 13:12:23;;;;;;;2.38;1.33;;;12.10;84.30;;;;;;5029704;28;20025;-72
2022/11/17 13:14:56;;;;;;;2.95;1.45;;;12.10;84.10;;;;;;5029799;28;20027;-71
2022/11/17 13:17:32;;;;;;;2.50;1.30;;;12.10;84.20;;;;;;5030041;28;20181;-71
2022/11/17 13:20:22;;;;;;;3.75;1.30;;;12.00;84.00;;;;;;5037390;28;20029;-71
2022/11/17 13:23:00;;;;;;;3.30;1.10;;;12.00;84.80;;;;;;5046050;28;20436;-71
2022/11/17 13:25:26;;;;;;;1.95;1.10;;;12.00;84.20;;;;;;5031281;28;20056;-71
2022/11/17 13:27:52;;;;;;;3.20;1.23;;;12.00;84.20;;;;;;5035740;28;20480;-71
2022/11/17 13:30:28;;;;;;;3.92;1.10;;;12.00;84.20;;;;;;5044155;28;20031;-71
2022/11/17 13:32:55;;;;;;;2.30;1.27;;;12.00;84.10;;;;;;5045754;28;20731;-71
2022/11/17 13:35:24;;;;;;;5.07;1.27;;;12.00;84.10;;;;;;5047063;28;20606;-71
2022/11/17 13:38:20;;;;;;;3.60;1.15;;;12.00;83.90;;;;;;5039346;28;20484;-71
2022/11/17 13:40:50;;;;;;;2.38;1.27;;;11.90;83.90;;;;;;5039768;28;20060;-71